Shache, China
Current Conditions -  °F | °C
As of 3:00 PM on Saturday 20 Dec 2014 (Local Time) from ZWSH Reporting Station
Clear Clear  
Wind Chill: 28°   Ceiling: Unl
Heat Index: 28°   Visibility: 4mi
Dew Point: 12°   Wind: 0mph
Humidity: 51%   Direction: NA
Pressure: 30.45"   Gusts: NA
Location:  38.42°N, 77.25°E
Report Text: ZWSH 200700Z 00000MPS 6000 NSC M02/M11 Q1031 NOSIG
Loading
Personal Weather Stations






























Interactive Weather Map New forecast layout! Learn more

10-Day Weather Forecast

Advertisements
Track Severe Weather on mobile